Time;durP1;ratioP1;P1;durP2;ratioP2;P2;SDS_P1;SDS_P2;PMS_P1;PMS_P2;Temp;Humidity;BMP_temperature;BMP_pressure;BME280_temperature;BME280_humidity;BME280_pressure;Samples;Min_cycle;Max_cycle;Signal;HPM_P1;HPM_P2
2022/12/13 00:02:30;;;;;;;6.50;4.90;;;-2.90;99.90;;;;;;4896164;29;20225;-87
2022/12/13 00:05:04;;;;;;;5.60;4.97;;;-2.90;99.90;;;;;;4895601;29;20287;-87
2022/12/13 00:07:42;;;;;;;7.87;5.93;;;-3.00;99.90;;;;;;4895851;29;20254;-88
2022/12/13 00:10:33;;;;;;;10.60;5.97;;;-3.00;99.90;;;;;;4897753;28;20335;-87
2022/12/13 00:13:18;;;;;;;7.00;5.43;;;-3.00;99.90;;;;;;4973975;28;20223;-87
2022/12/13 00:15:59;;;;;;;10.60;6.77;;;-3.00;99.90;;;;;;4974022;28;20271;-88
2022/12/13 00:18:36;;;;;;;6.57;5.43;;;-3.00;99.90;;;;;;4973816;28;20208;-88
2022/12/13 00:21:56;;;;;;;6.30;5.13;;;-3.00;99.90;;;;;;4973561;28;20207;-88
2022/12/13 00:25:20;;;;;;;7.20;5.40;;;-3.10;99.90;;;;;;4973971;28;20243;-88
2022/12/13 00:28:02;;;;;;;8.60;6.37;;;-3.10;99.90;;;;;;4965068;28;20220;-89
2022/12/13 00:30:31;;;;;;;6.47;5.70;;;-3.10;99.90;;;;;;4973318;28;20232;-89
2022/12/13 00:33:03;;;;;;;7.57;5.70;;;-3.10;99.90;;;;;;4973587;28;20263;-89
2022/12/13 00:35:36;;;;;;;6.30;5.43;;;-3.00;99.90;;;;;;4973207;28;20201;-89
2022/12/13 00:38:06;;;;;;;8.47;5.93;;;-3.10;99.90;;;;;;4977589;28;20210;-88
2022/12/13 00:40:35;;;;;;;9.17;5.77;;;-3.10;99.90;;;;;;4973488;28;20292;-89
2022/12/13 00:43:05;;;;;;;6.80;5.93;;;-3.00;99.90;;;;;;4973747;28;20242;-88
2022/12/13 00:45:46;;;;;;;14.10;6.53;;;-3.10;99.90;;;;;;4973405;28;20204;-89
2022/12/13 00:48:17;;;;;;;5.80;5.30;;;-3.10;99.90;;;;;;4972769;28;20204;-88
2022/12/13 00:50:56;;;;;;;8.73;6.03;;;-3.10;99.90;;;;;;4975466;28;20255;-88
2022/12/13 00:53:25;;;;;;;16.27;6.23;;;-3.10;99.90;;;;;;4977321;28;20246;-89
2022/12/13 00:55:57;;;;;;;10.17;7.03;;;-3.10;99.90;;;;;;4977159;28;20232;-89
2022/12/13 00:58:35;;;;;;;8.57;6.13;;;-3.10;99.90;;;;;;4977306;28;20259;-88
2022/12/13 01:01:12;;;;;;;7.90;6.77;;;-3.20;99.90;;;;;;4977114;28;20200;-89
2022/12/13 01:03:43;;;;;;;7.17;5.97;;;-3.20;99.90;;;;;;4976733;28;20236;-87
2022/12/13 01:06:17;;;;;;;12.03;7.40;;;-3.20;99.90;;;;;;4976758;28;20209;-87
2022/12/13 01:08:48;;;;;;;8.63;7.10;;;-3.20;99.90;;;;;;4976097;28;20200;-87
2022/12/13 01:11:20;;;;;;;10.13;7.23;;;-3.20;99.90;;;;;;4975314;28;20283;-87
2022/12/13 01:13:51;;;;;;;7.63;6.07;;;-3.20;99.90;;;;;;4973113;28;20235;-88
2022/12/13 01:16:32;;;;;;;8.43;6.63;;;-3.20;99.90;;;;;;4973188;28;20292;-88
2022/12/13 01:19:10;;;;;;;9.97;6.63;;;-3.20;99.90;;;;;;4973530;28;20205;-88
2022/12/13 01:21:41;;;;;;;7.17;5.73;;;-3.20;99.90;;;;;;4973035;28;20224;-88
2022/12/13 01:24:11;;;;;;;10.13;6.57;;;-3.20;99.90;;;;;;4973906;28;20228;-88
2022/12/13 01:26:40;;;;;;;6.97;6.27;;;-3.20;99.90;;;;;;4973708;28;20216;-88
2022/12/13 01:29:17;;;;;;;8.07;6.47;;;-3.20;99.90;;;;;;4973605;28;20204;-88
2022/12/13 01:31:47;;;;;;;7.53;6.33;;;-3.20;99.90;;;;;;4973315;28;20228;-88
2022/12/13 01:34:18;;;;;;;7.23;6.20;;;-3.20;99.90;;;;;;4973255;28;20221;-88
2022/12/13 01:36:48;;;;;;;7.00;6.27;;;-3.20;99.90;;;;;;4972538;28;20210;-88
2022/12/13 01:39:31;;;;;;;9.97;6.97;;;-3.30;99.90;;;;;;4973471;28;20230;-88
2022/12/13 01:42:20;;;;;;;7.70;6.63;;;-3.20;99.90;;;;;;4973537;28;20216;-89
2022/12/13 01:45:24;;;;;;;10.03;6.47;;;-3.30;99.90;;;;;;4973491;28;20291;-88
2022/12/13 01:48:03;;;;;;;9.57;6.33;;;-3.30;99.90;;;;;;4965662;28;20209;-88
2022/12/13 01:50:38;;;;;;;7.73;5.33;;;-3.20;99.90;;;;;;4954311;28;20225;-88
2022/12/13 01:53:12;;;;;;;7.27;6.07;;;-3.30;99.90;;;;;;4955239;28;20215;-88
2022/12/13 01:55:48;;;;;;;9.17;6.37;;;-3.20;99.90;;;;;;4972802;28;20216;-88
2022/12/13 01:58:18;;;;;;;7.00;6.00;;;-3.30;99.90;;;;;;4953900;28;20212;-88
2022/12/13 02:01:00;;;;;;;8.03;6.60;;;-3.30;99.90;;;;;;4962638;28;20279;-88
2022/12/13 02:03:33;;;;;;;8.20;6.70;;;-3.30;99.90;;;;;;4972528;28;20231;-88
2022/12/13 02:06:08;;;;;;;6.73;5.93;;;-3.30;99.90;;;;;;4973348;28;20209;-88
2022/12/13 02:08:43;;;;;;;9.07;6.23;;;-3.30;99.90;;;;;;4973765;28;20216;-87
2022/12/13 02:11:15;;;;;;;9.13;6.23;;;-3.40;99.90;;;;;;4973445;28;20229;-88
2022/12/13 02:13:44;;;;;;;6.60;5.90;;;-3.30;99.90;;;;;;4973057;28;20280;-87
2022/12/13 02:16:24;;;;;;;9.87;5.90;;;-3.40;99.90;;;;;;4973042;28;20216;-87
2022/12/13 02:19:04;;;;;;;9.10;5.43;;;-3.40;99.90;;;;;;4972980;28;20224;-87
2022/12/13 02:21:47;;;;;;;6.83;5.80;;;-3.40;99.90;;;;;;4972994;28;20211;-87
2022/12/13 02:24:33;;;;;;;13.57;7.00;;;-3.50;99.90;;;;;;4972872;28;20303;-87
2022/12/13 02:27:10;;;;;;;7.70;5.87;;;-3.40;99.90;;;;;;4972815;28;20212;-88
2022/12/13 02:30:06;;;;;;;6.93;5.83;;;-3.50;99.90;;;;;;4972612;28;20223;-88
2022/12/13 02:32:45;;;;;;;6.57;5.33;;;-3.50;99.90;;;;;;4971956;28;20208;-88
2022/12/13 02:35:22;;;;;;;8.20;5.93;;;-3.50;99.90;;;;;;4972498;28;20255;-88
2022/12/13 02:38:02;;;;;;;6.10;5.33;;;-3.50;99.90;;;;;;4972311;28;20216;-88
2022/12/13 02:40:42;;;;;;;6.30;5.40;;;-3.50;99.90;;;;;;4969204;28;20267;-89
2022/12/13 02:43:21;;;;;;;8.17;6.10;;;-3.50;99.90;;;;;;4972671;28;20209;-88
2022/12/13 02:45:55;;;;;;;10.30;6.40;;;-3.50;99.90;;;;;;4960687;28;20276;-89
2022/12/13 02:48:29;;;;;;;7.10;6.00;;;-3.50;99.90;;;;;;4953353;28;20217;-88
2022/12/13 02:51:03;;;;;;;7.03;5.83;;;-3.50;99.90;;;;;;4953485;28;20244;-89
2022/12/13 02:53:42;;;;;;;8.40;5.77;;;-3.40;99.90;;;;;;4953162;28;20232;-89
2022/12/13 02:56:16;;;;;;;10.33;6.57;;;-3.50;99.90;;;;;;4953098;28;20209;-88
2022/12/13 02:58:53;;;;;;;7.13;6.07;;;-3.40;99.90;;;;;;4953114;28;20219;-88
2022/12/13 03:01:39;;;;;;;6.20;5.27;;;-3.50;99.90;;;;;;4953571;28;20209;-88
2022/12/13 03:04:21;;;;;;;6.20;5.60;;;-3.50;99.90;;;;;;4955470;29;20225;-88
2022/12/13 03:07:04;;;;;;;6.87;6.17;;;-3.50;99.90;;;;;;4955400;29;20213;-88
2022/12/13 03:09:48;;;;;;;8.87;6.30;;;-3.50;99.90;;;;;;4955398;29;20212;-88
2022/12/13 03:15:22;;;;;;;6.73;5.37;;;-3.50;99.90;;;;;;4955184;29;20291;-88
2022/12/13 03:18:01;;;;;;;6.67;5.73;;;-3.50;99.90;;;;;;4954874;29;20213;-88
2022/12/13 03:20:35;;;;;;;6.30;5.67;;;-3.50;99.90;;;;;;4955162;29;20248;-88
2022/12/13 03:23:11;;;;;;;5.53;5.03;;;-3.50;99.90;;;;;;4955122;29;20212;-88
2022/12/13 03:25:42;;;;;;;8.23;6.27;;;-3.50;99.90;;;;;;4965749;28;20205;-89
2022/12/13 03:28:11;;;;;;;6.83;5.07;;;-3.50;99.90;;;;;;4954937;28;20201;-88
2022/12/13 03:30:42;;;;;;;7.60;6.30;;;-3.50;99.90;;;;;;4954481;29;20209;-88
2022/12/13 03:33:17;;;;;;;9.50;5.07;;;-3.50;99.90;;;;;;4964733;28;20220;-89
2022/12/13 03:35:54;;;;;;;9.00;6.27;;;-3.50;99.90;;;;;;4974130;28;20210;-88
2022/12/13 03:38:45;;;;;;;5.37;4.80;;;-3.60;99.90;;;;;;4973925;28;20260;-88
2022/12/13 03:44:47;;;;;;;5.43;4.70;;;-3.50;99.90;;;;;;4954011;28;20284;-89
2022/12/13 03:47:24;;;;;;;8.43;5.73;;;-3.60;99.90;;;;;;4965044;28;20201;-88
2022/12/13 03:50:06;;;;;;;8.97;5.50;;;-3.60;99.90;;;;;;4955146;29;20226;-89
2022/12/13 03:53:00;;;;;;;5.83;5.00;;;-3.70;99.90;;;;;;4963425;28;20283;-89
2022/12/13 03:55:32;;;;;;;5.77;5.17;;;-3.70;99.90;;;;;;4961856;28;20243;-88
2022/12/13 03:58:04;;;;;;;7.20;5.77;;;-3.80;99.90;;;;;;4971927;28;20283;-88
2022/12/13 04:00:38;;;;;;;6.80;6.00;;;-3.80;99.90;;;;;;4965010;28;20217;-88
2022/12/13 04:03:07;;;;;;;7.93;5.20;;;-3.80;99.90;;;;;;4954479;28;20205;-88
2022/12/13 04:05:37;;;;;;;7.07;5.97;;;-3.80;99.90;;;;;;4971406;28;20212;-89
2022/12/13 04:08:09;;;;;;;8.07;6.00;;;-3.80;99.90;;;;;;4961442;28;20213;-88
2022/12/13 04:10:55;;;;;;;5.97;5.10;;;-3.80;99.90;;;;;;4964616;28;20200;-88
2022/12/13 04:13:32;;;;;;;6.80;5.63;;;-3.90;99.90;;;;;;4973788;28;20227;-87
2022/12/13 04:16:03;;;;;;;6.00;4.83;;;-3.90;99.90;;;;;;4972127;28;20215;-88
2022/12/13 04:18:34;;;;;;;7.23;5.80;;;-3.80;99.90;;;;;;4960616;28;20197;-87
2022/12/13 04:21:05;;;;;;;5.27;4.77;;;-3.90;99.90;;;;;;4954601;29;20216;-88
2022/12/13 04:23:37;;;;;;;5.80;4.43;;;-3.80;99.90;;;;;;4958536;28;20232;-89
2022/12/13 04:26:09;;;;;;;8.17;5.50;;;-3.80;99.90;;;;;;4976288;28;20209;-89
2022/12/13 04:28:38;;;;;;;4.80;4.20;;;-3.80;99.90;;;;;;4977279;28;20207;-89
2022/12/13 04:31:18;;;;;;;7.33;5.00;;;-3.80;99.90;;;;;;4968322;28;20205;-89
2022/12/13 04:33:53;;;;;;;7.50;5.57;;;-3.90;99.90;;;;;;4957653;28;20228;-88
2022/12/13 04:36:24;;;;;;;5.83;5.10;;;-3.90;99.90;;;;;;4959578;28;20209;-88
2022/12/13 04:39:08;;;;;;;5.97;4.60;;;-3.90;99.90;;;;;;4976870;28;20200;-88
2022/12/13 04:41:53;;;;;;;7.47;5.60;;;-4.00;99.90;;;;;;4966166;28;20201;-88
2022/12/13 04:44:31;;;;;;;7.40;5.83;;;-4.00;99.90;;;;;;4977068;28;20235;-88
2022/12/13 04:47:08;;;;;;;9.90;6.57;;;-4.00;99.90;;;;;;4977191;28;20291;-88
2022/12/13 04:49:39;;;;;;;7.87;6.37;;;-4.10;99.90;;;;;;4976653;28;20215;-89
2022/12/13 04:52:11;;;;;;;7.43;6.23;;;-4.10;99.90;;;;;;4969043;28;20221;-88
2022/12/13 04:54:51;;;;;;;12.57;7.20;;;-4.10;99.90;;;;;;4958699;28;20288;-87
2022/12/13 04:57:25;;;;;;;10.30;6.20;;;-4.10;99.90;;;;;;4968614;28;20209;-88
2022/12/13 04:59:54;;;;;;;6.50;5.43;;;-4.10;99.90;;;;;;4957455;29;20236;-88
2022/12/13 05:02:23;;;;;;;7.97;5.97;;;-4.20;99.90;;;;;;4957203;29;20193;-88
2022/12/13 05:04:52;;;;;;;9.70;6.73;;;-4.20;99.90;;;;;;4957647;28;20233;-88
2022/12/13 05:07:23;;;;;;;9.37;6.23;;;-4.20;99.90;;;;;;4957650;28;20286;-88
2022/12/13 05:09:53;;;;;;;6.87;6.17;;;-4.20;99.90;;;;;;4957778;28;20240;-88
2022/12/13 05:12:22;;;;;;;6.80;6.03;;;-4.20;99.90;;;;;;4957142;28;20225;-88
2022/12/13 05:14:51;;;;;;;8.67;5.87;;;-4.20;99.90;;;;;;4974843;28;20247;-88
2022/12/13 05:17:20;;;;;;;9.67;6.77;;;-4.20;99.90;;;;;;4976870;28;20216;-88
2022/12/13 05:19:49;;;;;;;9.83;6.27;;;-4.30;99.90;;;;;;4976743;28;20216;-89
2022/12/13 05:22:17;;;;;;;11.00;5.90;;;-4.30;99.90;;;;;;4976938;28;20220;-88
2022/12/13 05:24:48;;;;;;;6.50;5.80;;;-4.40;99.90;;;;;;4976399;28;20260;-88
2022/12/13 05:27:19;;;;;;;10.17;6.40;;;-4.40;99.90;;;;;;4976115;28;20251;-88
2022/12/13 05:29:54;;;;;;;8.23;6.57;;;-4.40;99.90;;;;;;4976569;28;20214;-88
2022/12/13 05:32:35;;;;;;;9.30;6.33;;;-4.40;99.90;;;;;;4976655;28;20228;-88
2022/12/13 05:35:12;;;;;;;9.50;6.27;;;-4.40;99.90;;;;;;4976197;28;20228;-88
2022/12/13 05:37:41;;;;;;;9.93;5.90;;;-4.40;99.90;;;;;;4975874;28;20208;-89
2022/12/13 05:40:10;;;;;;;8.53;6.43;;;-4.40;99.90;;;;;;4976461;28;20209;-88
2022/12/13 05:42:43;;;;;;;7.90;6.17;;;-4.40;99.90;;;;;;4976127;28;20215;-88
2022/12/13 05:45:23;;;;;;;6.13;5.50;;;-4.50;99.90;;;;;;4976439;28;20263;-88
2022/12/13 05:47:54;;;;;;;8.57;5.90;;;-4.50;99.90;;;;;;4975971;28;20219;-89
2022/12/13 05:50:23;;;;;;;9.40;5.70;;;-4.60;99.90;;;;;;4975763;28;20216;-88
2022/12/13 05:52:52;;;;;;;11.37;7.27;;;-4.60;99.90;;;;;;4975989;28;20225;-89
2022/12/13 05:58:18;;;;;;;7.37;6.57;;;-4.60;99.90;;;;;;4975796;28;20215;-88
2022/12/13 06:00:53;;;;;;;8.13;5.63;;;-4.60;99.90;;;;;;4975883;28;20227;-88
2022/12/13 06:03:35;;;;;;;8.53;6.27;;;-4.70;99.90;;;;;;4960068;28;20221;-88
2022/12/13 06:06:23;;;;;;;11.13;6.40;;;-4.70;99.90;;;;;;4956764;29;20229;-88
2022/12/13 06:08:59;;;;;;;10.13;7.43;;;-4.70;99.90;;;;;;4956867;28;20201;-87
2022/12/13 06:11:36;;;;;;;9.00;6.77;;;-4.60;99.90;;;;;;4958060;28;20210;-88
2022/12/13 06:14:15;;;;;;;11.03;7.20;;;-4.70;99.90;;;;;;4975472;28;20311;-88
2022/12/13 06:16:54;;;;;;;11.80;7.27;;;-4.70;99.90;;;;;;4958989;28;20300;-88
2022/12/13 06:19:29;;;;;;;8.47;6.90;;;-4.70;99.90;;;;;;4966789;28;20216;-88
2022/12/13 06:21:58;;;;;;;12.20;7.67;;;-4.80;99.90;;;;;;4956169;29;20276;-88
2022/12/13 06:24:36;;;;;;;9.20;7.67;;;-4.70;99.90;;;;;;4955801;29;20221;-88
2022/12/13 06:27:17;;;;;;;8.57;6.83;;;-4.70;99.90;;;;;;4955679;28;20216;-89
2022/12/13 06:29:49;;;;;;;9.27;6.87;;;-4.70;99.90;;;;;;4955880;28;20233;-88
2022/12/13 06:32:20;;;;;;;11.40;7.97;;;-4.70;99.90;;;;;;4966976;28;20220;-89
2022/12/13 06:34:52;;;;;;;9.07;7.00;;;-4.80;99.90;;;;;;4986003;28;20306;-89
2022/12/13 06:37:24;;;;;;;9.43;7.23;;;-4.80;99.90;;;;;;4955939;29;20209;-87
2022/12/13 06:40:09;;;;;;;9.10;7.47;;;-4.80;99.90;;;;;;4955940;29;20209;-89
2022/12/13 06:49:27;;;;;;;11.90;9.17;;;-4.80;99.90;;;;;;4953253;28;20205;-88
2022/12/13 06:52:10;;;;;;;10.43;8.27;;;-4.80;99.90;;;;;;4955415;29;20209;-88
2022/12/13 06:54:41;;;;;;;9.80;7.30;;;-4.80;99.90;;;;;;4960214;28;20220;-88
2022/12/13 06:57:30;;;;;;;9.23;6.43;;;-4.90;99.90;;;;;;4974529;28;20227;-88
2022/12/13 06:59:59;;;;;;;8.90;7.23;;;-4.90;99.90;;;;;;4974483;28;20254;-88
2022/12/13 07:02:34;;;;;;;8.43;6.73;;;-4.90;99.90;;;;;;4962809;28;20246;-88
2022/12/13 07:05:03;;;;;;;10.30;7.10;;;-5.00;99.90;;;;;;4973353;28;20227;-88
2022/12/13 07:07:32;;;;;;;12.57;7.43;;;-4.90;99.90;;;;;;4973957;28;20212;-88
2022/12/13 07:10:01;;;;;;;8.63;6.70;;;-5.00;99.90;;;;;;4973948;28;20233;-88
2022/12/13 07:12:29;;;;;;;10.90;7.73;;;-4.90;99.90;;;;;;4974388;28;20220;-89
2022/12/13 08:07:10;;;;;;;18.73;11.30;;;-4.20;99.90;;;;;;5998480;23;20221;-88
2022/12/13 08:39:01;;;;;;;;;;;;;;;;;;;;;
2022/12/13 08:54:00;;;;;;;7.40;6.57;;;-3.10;99.90;;;;;;5852820;24;20207;-88
2022/12/13 09:33:58;;;;;;;7.73;5.97;;;-1.70;99.90;;;;;;5761832;24;20236;-89
2022/12/13 09:36:26;;;;;;;6.63;5.70;;;-1.70;99.90;;;;;;5810468;24;20189;-87
2022/12/13 09:38:57;;;;;;;8.27;5.30;;;-1.60;99.90;;;;;;5843431;24;20198;-87
2022/12/13 09:41:32;;;;;;;4.63;4.20;;;-1.60;99.90;;;;;;5843682;24;20298;-87
2022/12/13 09:44:16;;;;;;;6.73;5.33;;;-1.50;99.90;;;;;;5843580;24;20206;-87
2022/12/13 09:47:04;;;;;;;5.80;5.20;;;-1.40;99.90;;;;;;5918742;24;20180;-87
2022/12/13 09:49:44;;;;;;;7.57;5.37;;;-1.30;99.90;;;;;;5952100;24;20199;-87
2022/12/13 09:52:22;;;;;;;8.27;5.37;;;-1.20;99.90;;;;;;5952468;24;20199;-87
2022/12/13 09:54:52;;;;;;;5.10;4.60;;;-1.10;99.90;;;;;;5952219;24;20350;-88
2022/12/13 09:57:24;;;;;;;7.03;5.43;;;-1.00;99.90;;;;;;6006914;23;20213;-88
2022/12/13 10:00:03;;;;;;;8.93;5.50;;;-0.90;99.90;;;;;;6084927;23;20222;-88
2022/12/13 10:02:34;;;;;;;7.70;5.83;;;-0.80;99.90;;;;;;6155020;23;20189;-87
2022/12/13 10:05:20;;;;;;;5.87;5.10;;;-0.70;99.90;;;;;;6155638;23;20191;-88
2022/12/13 10:07:52;;;;;;;6.70;5.10;;;-0.60;99.90;;;;;;6154917;23;20182;-88
2022/12/13 10:10:23;;;;;;;10.40;5.30;;;-0.50;99.90;;;;;;6155506;23;20175;-87
2022/12/13 10:12:57;;;;;;;5.67;4.30;;;-0.40;99.90;;;;;;6154946;23;20218;-88
2022/12/13 10:15:28;;;;;;;6.47;5.00;;;-0.20;99.90;;;;;;6155194;23;20179;-88
2022/12/13 10:17:59;;;;;;;6.07;4.97;;;-0.10;99.90;;;;;;6153499;23;20195;-88
2022/12/13 10:20:29;;;;;;;7.97;5.23;;;0.10;99.90;;;;;;6155327;23;20253;-88
2022/12/13 10:22:58;;;;;;;4.33;3.93;;;0.30;99.90;;;;;;6154973;23;20181;-84
2022/12/13 10:25:49;;;;;;;3.40;3.10;;;0.50;99.90;;;;;;6154939;23;20181;-88
2022/12/13 10:28:25;;;;;;;5.10;4.60;;;1.00;99.90;;;;;;6154682;23;20180;-87
2022/12/13 10:30:53;;;;;;;3.95;3.65;;;1.60;99.90;;;;;;6154861;23;20222;-86
2022/12/13 10:33:26;;;;;;;4.85;3.80;;;2.20;99.90;;;;;;6154682;23;20191;-86
2022/12/13 10:36:16;;;;;;;5.80;4.28;;;2.60;99.90;;;;;;6154886;23;20239;-88
2022/12/13 10:38:50;;;;;;;11.32;4.60;;;2.90;99.90;;;;;;6154514;23;20245;-82
2022/12/13 10:41:34;;;;;;;4.70;4.28;;;3.30;99.90;;;;;;6154887;23;20175;-87
2022/12/13 10:44:15;;;;;;;4.30;3.90;;;3.50;99.90;;;;;;6154830;23;20191;-87
2022/12/13 10:46:49;;;;;;;7.50;4.43;;;3.80;99.90;;;;;;6155244;23;20254;-89
2022/12/13 10:49:22;;;;;;;4.25;3.85;;;4.10;99.90;;;;;;6154642;23;20273;-88
2022/12/13 10:51:53;;;;;;;10.40;5.05;;;4.30;99.90;;;;;;6153977;23;20199;-89
2022/12/13 10:54:27;;;;;;;4.53;4.13;;;4.70;99.90;;;;;;6152978;23;20215;-89
2022/12/13 10:57:05;;;;;;;4.53;4.13;;;4.80;99.90;;;;;;6153899;23;20179;-89
2022/12/13 10:59:36;;;;;;;4.88;4.18;;;4.80;99.90;;;;;;6154079;23;20175;-89
2022/12/13 11:02:31;;;;;;;9.43;5.03;;;4.70;99.90;;;;;;6154326;23;20186;-89
2022/12/13 11:05:23;;;;;;;5.45;4.07;;;4.70;99.90;;;;;;6154285;23;20225;-89
2022/12/13 11:07:51;;;;;;;4.63;4.07;;;4.90;99.90;;;;;;6154137;23;20167;-89
2022/12/13 11:10:27;;;;;;;4.53;4.13;;;5.00;99.90;;;;;;6154354;23;20238;-89
2022/12/13 11:13:01;;;;;;;3.83;3.35;;;5.50;99.90;;;;;;6154315;23;20221;-89
2022/12/13 11:15:31;;;;;;;4.28;3.88;;;5.70;99.90;;;;;;6154495;23;20234;-89
2022/12/13 11:18:02;;;;;;;5.47;4.10;;;5.90;99.90;;;;;;6153738;23;20175;-89
2022/12/13 11:20:35;;;;;;;4.55;4.15;;;6.00;99.90;;;;;;6154165;23;20234;-88
2022/12/13 11:23:06;;;;;;;7.10;5.20;;;6.10;99.90;;;;;;6154008;23;20167;-88
2022/12/13 11:25:40;;;;;;;4.05;3.50;;;6.10;99.90;;;;;;6154360;23;20254;-89
2022/12/13 11:28:25;;;;;;;4.35;3.63;;;6.60;99.90;;;;;;6154167;23;20178;-88
2022/12/13 11:31:04;;;;;;;4.20;3.42;;;6.50;99.90;;;;;;6154251;23;20174;-88
2022/12/13 11:33:41;;;;;;;3.20;2.90;;;6.30;99.90;;;;;;6154037;23;20269;-87
2022/12/13 11:36:26;;;;;;;5.15;3.83;;;6.20;99.90;;;;;;6154309;23;20171;-87
2022/12/13 11:39:07;;;;;;;4.82;3.83;;;6.30;99.90;;;;;;6154163;23;20182;-87
2022/12/13 11:41:40;;;;;;;4.13;3.63;;;6.20;99.90;;;;;;6154618;23;20163;-87
2022/12/13 11:44:15;;;;;;;4.28;3.78;;;6.00;99.90;;;;;;6154084;23;20262;-87
2022/12/13 11:46:48;;;;;;;3.45;3.15;;;5.90;99.90;;;;;;6154050;23;20213;-87
2022/12/13 11:49:18;;;;;;;5.25;4.05;;;6.00;99.90;;;;;;6153795;23;20257;-87
2022/12/13 11:51:53;;;;;;;5.45;3.40;;;6.20;99.90;;;;;;6153892;23;20258;-87
2022/12/13 11:54:28;;;;;;;4.18;3.58;;;6.30;99.90;;;;;;6153689;23;20218;-87
2022/12/13 11:56:59;;;;;;;4.63;3.78;;;6.30;99.90;;;;;;6153724;23;20181;-85
2022/12/13 11:59:36;;;;;;;5.13;3.83;;;6.20;99.90;;;;;;6153828;23;20175;-86
2022/12/13 12:02:16;;;;;;;3.85;3.50;;;6.10;99.90;;;;;;6153733;23;20183;-85
2022/12/13 12:04:48;;;;;;;6.38;4.25;;;6.00;99.90;;;;;;6153634;23;20199;-85
2022/12/13 12:07:33;;;;;;;3.50;3.20;;;6.10;99.90;;;;;;6154021;23;20245;-86
2022/12/13 12:10:15;;;;;;;3.45;3.17;;;5.80;99.90;;;;;;6154051;23;20171;-86
2022/12/13 12:12:48;;;;;;;3.75;3.42;;;5.80;99.90;;;;;;6153842;23;20243;-86
2022/12/13 12:15:19;;;;;;;3.40;3.10;;;5.80;99.90;;;;;;6153794;23;20270;-86
2022/12/13 12:17:54;;;;;;;3.90;3.53;;;5.80;99.90;;;;;;6153422;23;20199;-86
2022/12/13 12:20:33;;;;;;;4.72;3.58;;;5.90;99.90;;;;;;6154946;23;20247;-86
2022/12/13 12:23:19;;;;;;;5.70;4.18;;;6.00;99.90;;;;;;6154943;23;20164;-86
2022/12/13 12:25:52;;;;;;;9.05;3.90;;;6.00;99.90;;;;;;6154814;23;20206;-86
2022/12/13 12:28:29;;;;;;;3.45;3.15;;;5.80;99.90;;;;;;6154213;23;20174;-87
2022/12/13 12:31:08;;;;;;;3.22;2.92;;;5.70;99.90;;;;;;6154640;23;20199;-87
2022/12/13 12:33:45;;;;;;;4.05;3.65;;;5.70;99.90;;;;;;6154564;23;20217;-87
2022/12/13 12:36:32;;;;;;;3.88;3.53;;;5.70;99.90;;;;;;6154412;23;20175;-86
2022/12/13 12:39:32;;;;;;;4.18;3.78;;;5.90;99.90;;;;;;6155955;23;20177;-86
2022/12/13 12:42:34;;;;;;;4.03;3.63;;;5.90;99.90;;;;;;6095394;23;20178;-86
2022/12/13 12:45:36;;;;;;;3.88;3.50;;;5.70;99.90;;;;;;6092301;23;20199;-86
2022/12/13 12:48:42;;;;;;;4.15;3.53;;;5.70;99.90;;;;;;6156358;23;20170;-87
2022/12/13 12:51:38;;;;;;;12.20;4.28;;;5.60;99.90;;;;;;6156313;23;20179;-86
2022/12/13 12:54:24;;;;;;;10.00;3.35;;;5.70;99.90;;;;;;6156158;23;20187;-87
2022/12/13 12:57:09;;;;;;;4.38;3.63;;;5.80;99.90;;;;;;6156098;23;20168;-87
2022/12/13 12:59:47;;;;;;;4.28;3.88;;;6.10;99.90;;;;;;6156380;23;20258;-86
2022/12/13 13:02:21;;;;;;;3.80;3.50;;;6.00;99.90;;;;;;6156043;23;20181;-85
2022/12/13 13:05:07;;;;;;;4.35;3.83;;;6.10;99.90;;;;;;6155804;23;20206;-86
2022/12/13 13:07:41;;;;;;;5.28;4.15;;;6.10;99.90;;;;;;6155755;23;20181;-86
2022/12/13 13:10:18;;;;;;;5.70;4.55;;;6.30;99.90;;;;;;6156387;23;20174;-86
2022/12/13 13:12:55;;;;;;;4.07;3.72;;;6.30;99.90;;;;;;6156036;23;20186;-85
2022/12/13 13:15:56;;;;;;;3.80;3.50;;;6.50;99.90;;;;;;6155886;23;20167;-87
2022/12/13 13:18:48;;;;;;;6.22;4.18;;;6.60;99.90;;;;;;6155814;23;20177;-86
2022/12/13 13:21:27;;;;;;;3.65;3.30;;;6.70;99.90;;;;;;6155273;23;20183;-86
2022/12/13 13:24:17;;;;;;;3.65;3.35;;;6.90;99.90;;;;;;6156043;23;20274;-86
2022/12/13 13:26:47;;;;;;;3.72;3.42;;;6.70;99.90;;;;;;6141015;23;20230;-86
2022/12/13 13:29:34;;;;;;;5.22;4.00;;;6.70;99.90;;;;;;6155531;23;20187;-86
2022/12/13 13:32:19;;;;;;;5.15;3.63;;;6.50;99.90;;;;;;6153517;23;20194;-86
2022/12/13 13:35:52;;;;;;;7.13;3.75;;;6.30;99.90;;;;;;6155958;23;20195;-86
2022/12/13 13:38:53;;;;;;;4.78;3.92;;;5.80;99.90;;;;;;6155246;23;20179;-87
2022/12/13 13:41:53;;;;;;;4.03;3.55;;;5.30;99.90;;;;;;6155791;23;20241;-86
2022/12/13 13:44:53;;;;;;;3.42;3.22;;;5.00;99.90;;;;;;6155248;23;20225;-86
2022/12/13 13:47:43;;;;;;;5.25;3.85;;;4.70;99.90;;;;;;6155550;23;20174;-86
2022/12/13 13:50:57;;;;;;;5.97;4.18;;;4.30;99.90;;;;;;6147903;23;20199;-86
2022/12/13 13:53:54;;;;;;;3.85;3.53;;;4.10;99.90;;;;;;6155002;23;20207;-86
2022/12/13 13:56:50;;;;;;;6.85;4.30;;;3.90;99.90;;;;;;6155827;23;20206;-86
2022/12/13 14:02:56;;;;;;;4.05;3.65;;;3.60;99.90;;;;;;5090015;27;20566;-87
2022/12/13 14:06:12;;;;;;;5.00;3.42;;;3.10;99.90;;;;;;5089837;28;20282;-86
2022/12/13 14:08:50;;;;;;;3.97;3.65;;;2.80;99.90;;;;;;5008200;28;20206;-86
2022/12/13 14:11:49;;;;;;;4.15;3.55;;;2.60;99.90;;;;;;5087534;28;20203;-86
2022/12/13 14:15:07;;;;;;;3.38;3.08;;;2.50;99.90;;;;;;5089784;28;20255;-86
2022/12/13 14:18:11;;;;;;;3.58;3.28;;;2.20;99.90;;;;;;5089611;28;20295;-86
2022/12/13 14:21:10;;;;;;;3.47;3.17;;;2.00;99.90;;;;;;5089393;28;20244;-86
2022/12/13 14:23:57;;;;;;;3.90;3.23;;;1.80;99.90;;;;;;5089658;28;20247;-86
2022/12/13 14:27:03;;;;;;;4.50;3.50;;;1.70;99.90;;;;;;5089578;28;20204;-86
2022/12/13 14:29:34;;;;;;;14.43;4.70;;;1.50;99.90;;;;;;5089545;28;20189;-86
2022/12/13 14:32:09;;;;;;;4.13;3.43;;;1.40;99.90;;;;;;5089401;28;20196;-86
2022/12/13 14:34:55;;;;;;;4.30;3.57;;;1.30;99.90;;;;;;5089629;28;20240;-86
2022/12/13 14:37:30;;;;;;;5.17;3.77;;;1.20;99.90;;;;;;5089358;28;20209;-87
2022/12/13 14:40:02;;;;;;;6.20;4.23;;;1.10;99.90;;;;;;5089383;28;20214;-86
2022/12/13 14:42:34;;;;;;;4.23;3.83;;;1.00;99.90;;;;;;5089673;28;20257;-86
2022/12/13 14:45:16;;;;;;;5.43;4.03;;;1.00;99.90;;;;;;5089151;28;20319;-86
2022/12/13 14:47:44;;;;;;;5.07;4.57;;;0.90;99.90;;;;;;5089360;28;20251;-86
2022/12/13 14:50:16;;;;;;;3.73;3.43;;;0.90;99.90;;;;;;5089076;28;20201;-86
2022/12/13 14:52:47;;;;;;;5.17;4.37;;;0.80;99.90;;;;;;5089083;28;20214;-86
2022/12/13 14:55:25;;;;;;;3.97;3.57;;;0.80;99.90;;;;;;5089276;28;20288;-87
2022/12/13 14:57:55;;;;;;;4.40;4.00;;;0.70;99.90;;;;;;5088630;28;20246;-86
2022/12/13 15:00:27;;;;;;;4.80;3.80;;;0.60;99.90;;;;;;5089042;28;20303;-86
2022/12/13 15:02:58;;;;;;;4.40;4.00;;;0.60;99.90;;;;;;5088765;28;20410;-86
2022/12/13 15:05:30;;;;;;;4.77;4.10;;;0.50;99.90;;;;;;5089152;28;20254;-86
2022/12/13 15:07:59;;;;;;;6.57;4.80;;;0.50;99.90;;;;;;5088814;28;20212;-86
2022/12/13 15:10:42;;;;;;;3.90;3.60;;;0.40;99.90;;;;;;5089016;28;20197;-87
2022/12/13 15:13:26;;;;;;;7.13;4.73;;;0.40;99.90;;;;;;5076860;28;20212;-87
2022/12/13 15:16:00;;;;;;;5.03;4.43;;;0.40;99.90;;;;;;5075235;28;20205;-87
2022/12/13 15:18:29;;;;;;;4.13;3.73;;;0.40;99.90;;;;;;5075029;28;20205;-87
2022/12/13 15:21:00;;;;;;;5.67;4.70;;;0.30;99.90;;;;;;5074872;28;20224;-87
2022/12/13 15:23:39;;;;;;;5.57;4.17;;;0.30;99.90;;;;;;5074870;28;20232;-87
2022/12/13 15:26:20;;;;;;;5.80;4.03;;;0.20;99.90;;;;;;5074935;28;20236;-87
2022/12/13 15:29:01;;;;;;;5.17;4.20;;;0.20;99.90;;;;;;5074988;28;20262;-86
2022/12/13 15:31:38;;;;;;;5.37;4.50;;;0.20;99.90;;;;;;5074935;28;20288;-85
2022/12/13 15:34:31;;;;;;;4.87;4.10;;;0.20;99.90;;;;;;5074814;28;20221;-84
2022/12/13 15:37:02;;;;;;;5.17;4.33;;;0.10;99.90;;;;;;5074754;28;20216;-85
2022/12/13 15:39:35;;;;;;;4.87;4.33;;;0.10;99.90;;;;;;5074858;28;20215;-85
2022/12/13 15:42:06;;;;;;;5.73;5.10;;;0.00;99.90;;;;;;5074526;28;20224;-85
2022/12/13 15:44:41;;;;;;;4.53;4.17;;;0.00;99.90;;;;;;5074455;28;20316;-85
2022/12/13 15:47:17;;;;;;;7.37;4.63;;;0.00;99.90;;;;;;5074402;28;20209;-84
2022/12/13 15:49:58;;;;;;;5.87;4.57;;;0.00;99.90;;;;;;5074607;28;20227;-85
2022/12/13 15:52:34;;;;;;;4.80;4.30;;;-0.10;99.90;;;;;;5074584;28;20240;-84
2022/12/13 15:55:23;;;;;;;5.17;4.20;;;-0.10;99.90;;;;;;5074451;28;20310;-84
2022/12/13 15:57:58;;;;;;;7.33;5.33;;;-0.10;99.90;;;;;;5074396;28;20209;-85
2022/12/13 16:00:28;;;;;;;6.60;5.10;;;-0.10;99.90;;;;;;5074350;28;20216;-84
2022/12/13 16:03:04;;;;;;;5.77;5.00;;;-0.20;99.90;;;;;;5073739;28;20224;-84
2022/12/13 16:05:38;;;;;;;6.97;5.00;;;-0.10;99.90;;;;;;5074761;28;20273;-84
2022/12/13 16:08:18;;;;;;;19.43;5.60;;;-0.20;99.90;;;;;;5074174;28;20292;-84
2022/12/13 16:10:47;;;;;;;8.13;5.07;;;-0.20;99.90;;;;;;5074185;28;20232;-84
2022/12/13 16:13:24;;;;;;;13.40;5.17;;;-0.20;99.90;;;;;;5074016;28;20479;-84
2022/12/13 16:15:56;;;;;;;6.13;4.63;;;-0.30;99.90;;;;;;5074250;28;20201;-85
2022/12/13 16:18:32;;;;;;;4.90;4.40;;;-0.30;99.90;;;;;;5074127;28;20205;-85